sensor_id;sensor_type;location;lat;lon;timestamp;P1;P2;P0
70197;PMS5003;57582;-34.876;138.628;2022-07-30T00:01:55;1.40;1.40;1.13
70197;PMS5003;57582;-34.876;138.628;2022-07-30T00:04:55;10.27;8.93;6.07
70197;PMS5003;57582;-34.876;138.628;2022-07-30T00:07:55;2.53;0.93;0.10
70197;PMS5003;57582;-34.876;138.628;2022-07-30T00:10:55;0.43;0.37;0.03
70197;PMS5003;57582;-34.876;138.628;2022-07-30T00:13:56;1.07;1.07;0.30
70197;PMS5003;57582;-34.876;138.628;2022-07-30T00:16:56;5.20;3.27;1.80
70197;PMS5003;57582;-34.876;138.628;2022-07-30T00:19:55;2.93;2.10;1.30
70197;PMS5003;57582;-34.876;138.628;2022-07-30T00:22:55;8.30;6.33;3.37
70197;PMS5003;57582;-34.876;138.628;2022-07-30T00:25:55;5.83;5.43;2.97
70197;PMS5003;57582;-34.876;138.628;2022-07-30T00:28:56;6.67;5.33;3.07
70197;PMS5003;57582;-34.876;138.628;2022-07-30T00:31:55;2.50;1.83;0.93
70197;PMS5003;57582;-34.876;138.628;2022-07-30T00:34:55;3.30;3.30;2.27
70197;PMS5003;57582;-34.876;138.628;2022-07-30T00:37:55;0.50;0.03;0.00
70197;PMS5003;57582;-34.876;138.628;2022-07-30T00:40:56;2.57;2.50;1.23
70197;PMS5003;57582;-34.876;138.628;2022-07-30T00:43:55;21.50;19.00;12.47
70197;PMS5003;57582;-34.876;138.628;2022-07-30T00:46:56;12.47;10.77;7.27
70197;PMS5003;57582;-34.876;138.628;2022-07-30T00:49:55;2.30;2.30;1.87
70197;PMS5003;57582;-34.876;138.628;2022-07-30T00:52:55;1.67;1.10;0.43
70197;PMS5003;57582;-34.876;138.628;2022-07-30T00:55:55;4.80;4.73;3.67
70197;PMS5003;57582;-34.876;138.628;2022-07-30T00:58:55;8.87;6.87;4.87
70197;PMS5003;57582;-34.876;138.628;2022-07-30T01:01:55;2.23;1.67;1.07
70197;PMS5003;57582;-34.876;138.628;2022-07-30T01:04:56;7.97;7.80;6.47
70197;PMS5003;57582;-34.876;138.628;2022-07-30T01:07:55;12.33;10.93;5.30
70197;PMS5003;57582;-34.876;138.628;2022-07-30T01:10:55;109.50;101.43;62.87
70197;PMS5003;57582;-34.876;138.628;2022-07-30T01:13:55;66.30;58.17;40.90
70197;PMS5003;57582;-34.876;138.628;2022-07-30T01:16:55;38.40;34.77;21.57
70197;PMS5003;57582;-34.876;138.628;2022-07-30T01:19:59;21.30;20.57;15.60
70197;PMS5003;57582;-34.876;138.628;2022-07-30T01:26:06;0.40;0.40;0.07
70197;PMS5003;57582;-34.876;138.628;2022-07-30T01:28:57;0.60;0.60;0.20
70197;PMS5003;57582;-34.876;138.628;2022-07-30T01:31:56;0.13;0.00;0.00
70197;PMS5003;57582;-34.876;138.628;2022-07-30T01:34:57;0.00;0.00;0.00
70197;PMS5003;57582;-34.876;138.628;2022-07-30T01:37:56;0.80;0.00;0.00
70197;PMS5003;57582;-34.876;138.628;2022-07-30T01:40:56;1.33;0.37;0.03
70197;PMS5003;57582;-34.876;138.628;2022-07-30T01:43:56;0.50;0.50;0.00
70197;PMS5003;57582;-34.876;138.628;2022-07-30T01:46:57;0.50;0.50;0.00
70197;PMS5003;57582;-34.876;138.628;2022-07-30T01:49:56;0.67;0.30;0.00
70197;PMS5003;57582;-34.876;138.628;2022-07-30T01:52:57;0.03;0.00;0.00
70197;PMS5003;57582;-34.876;138.628;2022-07-30T01:55:55;0.50;0.00;0.00
70197;PMS5003;57582;-34.876;138.628;2022-07-30T01:58:57;0.50;0.50;0.00
70197;PMS5003;57582;-34.876;138.628;2022-07-30T02:01:55;1.03;0.80;0.00
70197;PMS5003;57582;-34.876;138.628;2022-07-30T02:04:56;0.40;0.40;0.00
70197;PMS5003;57582;-34.876;138.628;2022-07-30T02:11:03;0.90;0.90;0.00
70197;PMS5003;57582;-34.876;138.628;2022-07-30T02:13:56;0.00;0.00;0.00
70197;PMS5003;57582;-34.876;138.628;2022-07-30T02:16:56;0.10;0.10;0.00
70197;PMS5003;57582;-34.876;138.628;2022-07-30T02:19:55;1.20;1.20;0.33
70197;PMS5003;57582;-34.876;138.628;2022-07-30T02:23:01;0.60;0.60;0.00
70197;PMS5003;57582;-34.876;138.628;2022-07-30T02:25:56;0.03;0.03;0.00
70197;PMS5003;57582;-34.876;138.628;2022-07-30T02:28:59;0.30;0.30;0.00
70197;PMS5003;57582;-34.876;138.628;2022-07-30T02:31:56;55.90;49.60;24.93
70197;PMS5003;57582;-34.876;138.628;2022-07-30T02:35:00;24.77;22.27;10.77
70197;PMS5003;57582;-34.876;138.628;2022-07-30T02:37:56;9.20;9.13;4.23
70197;PMS5003;57582;-34.876;138.628;2022-07-30T02:40:58;5.37;2.33;0.93
70197;PMS5003;57582;-34.876;138.628;2022-07-30T02:43:56;16.23;14.63;8.87
70197;PMS5003;57582;-34.876;138.628;2022-07-30T02:46:57;7.17;7.17;4.63
70197;PMS5003;57582;-34.876;138.628;2022-07-30T02:49:55;36.80;33.17;20.87
70197;PMS5003;57582;-34.876;138.628;2022-07-30T02:52:57;8.47;8.47;4.50
70197;PMS5003;57582;-34.876;138.628;2022-07-30T02:55:56;36.37;33.10;19.40
70197;PMS5003;57582;-34.876;138.628;2022-07-30T02:58:58;18.10;16.53;10.27
70197;PMS5003;57582;-34.876;138.628;2022-07-30T03:01:56;32.43;26.13;16.30
70197;PMS5003;57582;-34.876;138.628;2022-07-30T03:04:57;26.77;23.43;14.60
70197;PMS5003;57582;-34.876;138.628;2022-07-30T03:07:57;16.27;14.50;8.40
70197;PMS5003;57582;-34.876;138.628;2022-07-30T03:10:56;24.20;20.50;12.10
70197;PMS5003;57582;-34.876;138.628;2022-07-30T03:13:56;15.53;12.10;5.57
70197;PMS5003;57582;-34.876;138.628;2022-07-30T03:16:58;41.17;35.27;22.03
70197;PMS5003;57582;-34.876;138.628;2022-07-30T03:19:56;5.67;5.67;3.03
70197;PMS5003;57582;-34.876;138.628;2022-07-30T03:22:57;7.27;6.77;3.53
70197;PMS5003;57582;-34.876;138.628;2022-07-30T03:26:01;10.10;9.77;5.43
70197;PMS5003;57582;-34.876;138.628;2022-07-30T03:28:57;10.47;10.47;6.17
70197;PMS5003;57582;-34.876;138.628;2022-07-30T03:31:56;5.63;4.67;2.37
70197;PMS5003;57582;-34.876;138.628;2022-07-30T03:34:56;4.73;3.90;2.27
70197;PMS5003;57582;-34.876;138.628;2022-07-30T03:37:56;11.87;10.77;6.63
70197;PMS5003;57582;-34.876;138.628;2022-07-30T03:40:57;10.60;10.60;8.73
70197;PMS5003;57582;-34.876;138.628;2022-07-30T03:43:56;1.73;1.17;0.57
70197;PMS5003;57582;-34.876;138.628;2022-07-30T03:46:56;10.53;10.53;8.10
70197;PMS5003;57582;-34.876;138.628;2022-07-30T03:49:55;3.13;3.13;1.83
70197;PMS5003;57582;-34.876;138.628;2022-07-30T03:52:56;2.53;2.53;1.77
70197;PMS5003;57582;-34.876;138.628;2022-07-30T03:55:56;0.73;0.33;0.00
70197;PMS5003;57582;-34.876;138.628;2022-07-30T03:58:56;1.00;1.00;0.47
70197;PMS5003;57582;-34.876;138.628;2022-07-30T04:02:00;1.00;0.07;0.07
70197;PMS5003;57582;-34.876;138.628;2022-07-30T04:04:56;1.33;0.00;0.00
70197;PMS5003;57582;-34.876;138.628;2022-07-30T04:07:55;0.57;0.57;0.07
70197;PMS5003;57582;-34.876;138.628;2022-07-30T04:10:56;0.50;0.33;0.00
70197;PMS5003;57582;-34.876;138.628;2022-07-30T04:13:55;0.87;0.87;0.00
70197;PMS5003;57582;-34.876;138.628;2022-07-30T04:17:05;1.87;0.33;0.00
70197;PMS5003;57582;-34.876;138.628;2022-07-30T04:20:01;0.43;0.43;0.00
70197;PMS5003;57582;-34.876;138.628;2022-07-30T04:22:57;0.17;0.17;0.00
70197;PMS5003;57582;-34.876;138.628;2022-07-30T04:25:55;0.63;0.63;0.00
70197;PMS5003;57582;-34.876;138.628;2022-07-30T04:28:56;1.00;1.00;0.00
70197;PMS5003;57582;-34.876;138.628;2022-07-30T04:31:56;1.33;0.53;0.00
70197;PMS5003;57582;-34.876;138.628;2022-07-30T04:34:56;0.07;0.07;0.00
70197;PMS5003;57582;-34.876;138.628;2022-07-30T04:37:57;0.53;0.53;0.00
70197;PMS5003;57582;-34.876;138.628;2022-07-30T04:40:56;0.50;0.50;0.00
70197;PMS5003;57582;-34.876;138.628;2022-07-30T04:43:55;0.00;0.00;0.00
70197;PMS5003;57582;-34.876;138.628;2022-07-30T04:46:56;0.60;0.60;0.10
70197;PMS5003;57582;-34.876;138.628;2022-07-30T04:49:56;0.37;0.37;0.00
70197;PMS5003;57582;-34.876;138.628;2022-07-30T04:52:56;0.33;0.33;0.00
70197;PMS5003;57582;-34.876;138.628;2022-07-30T04:55:56;1.33;0.83;0.00
70197;PMS5003;57582;-34.876;138.628;2022-07-30T04:58:56;1.07;0.30;0.00
70197;PMS5003;57582;-34.876;138.628;2022-07-30T05:01:57;1.87;1.07;0.00
70197;PMS5003;57582;-34.876;138.628;2022-07-30T05:04:58;0.47;0.47;0.00
70197;PMS5003;57582;-34.876;138.628;2022-07-30T05:07:56;0.77;0.37;0.00
70197;PMS5003;57582;-34.876;138.628;2022-07-30T05:10:56;0.70;0.37;0.00
70197;PMS5003;57582;-34.876;138.628;2022-07-30T05:13:55;0.47;0.47;0.03
70197;PMS5003;57582;-34.876;138.628;2022-07-30T05:16:56;1.70;0.60;0.00
70197;PMS5003;57582;-34.876;138.628;2022-07-30T05:19:55;0.67;0.00;0.00
70197;PMS5003;57582;-34.876;138.628;2022-07-30T05:22:56;0.60;0.30;0.00
70197;PMS5003;57582;-34.876;138.628;2022-07-30T05:25:56;0.40;0.07;0.00
70197;PMS5003;57582;-34.876;138.628;2022-07-30T05:28:56;0.00;0.00;0.00
70197;PMS5003;57582;-34.876;138.628;2022-07-30T05:31:55;0.87;0.33;0.00
70197;PMS5003;57582;-34.876;138.628;2022-07-30T05:34:56;0.57;0.00;0.00
70197;PMS5003;57582;-34.876;138.628;2022-07-30T05:37:57;0.17;0.17;0.00
70197;PMS5003;57582;-34.876;138.628;2022-07-30T05:40:56;0.37;0.00;0.00
70197;PMS5003;57582;-34.876;138.628;2022-07-30T05:43:55;0.73;0.00;0.00
70197;PMS5003;57582;-34.876;138.628;2022-07-30T05:46:56;1.63;0.00;0.00
70197;PMS5003;57582;-34.876;138.628;2022-07-30T05:49:56;0.00;0.00;0.00
70197;PMS5003;57582;-34.876;138.628;2022-07-30T05:52:56;1.23;0.07;0.00
70197;PMS5003;57582;-34.876;138.628;2022-07-30T05:55:57;0.00;0.00;0.00
70197;PMS5003;57582;-34.876;138.628;2022-07-30T05:58:56;0.53;0.00;0.00
70197;PMS5003;57582;-34.876;138.628;2022-07-30T06:01:55;39.83;33.17;18.77
70197;PMS5003;57582;-34.876;138.628;2022-07-30T06:04:56;74.77;58.33;30.40
70197;PMS5003;57582;-34.876;138.628;2022-07-30T06:07:55;49.30;39.27;19.57
70197;PMS5003;57582;-34.876;138.628;2022-07-30T06:10:56;47.87;37.03;16.50
70197;PMS5003;57582;-34.876;138.628;2022-07-30T06:13:55;88.37;74.47;34.23
70197;PMS5003;57582;-34.876;138.628;2022-07-30T06:16:56;52.03;41.07;20.70
70197;PMS5003;57582;-34.876;138.628;2022-07-30T06:19:58;58.97;46.07;23.63
70197;PMS5003;57582;-34.876;138.628;2022-07-30T06:22:57;100.10;84.50;39.77
70197;PMS5003;57582;-34.876;138.628;2022-07-30T06:25:55;92.50;76.83;37.07
70197;PMS5003;57582;-34.876;138.628;2022-07-30T06:28:56;33.60;27.77;12.97
70197;PMS5003;57582;-34.876;138.628;2022-07-30T06:31:55;123.47;111.37;61.77
70197;PMS5003;57582;-34.876;138.628;2022-07-30T06:34:56;70.33;60.30;34.00
70197;PMS5003;57582;-34.876;138.628;2022-07-30T06:37:56;97.83;87.10;48.27
70197;PMS5003;57582;-34.876;138.628;2022-07-30T06:40:57;97.53;89.10;51.53
70197;PMS5003;57582;-34.876;138.628;2022-07-30T06:43:56;28.97;26.63;16.57
70197;PMS5003;57582;-34.876;138.628;2022-07-30T06:46:56;57.27;47.03;30.27
70197;PMS5003;57582;-34.876;138.628;2022-07-30T06:49:56;18.47;15.67;10.67
70197;PMS5003;57582;-34.876;138.628;2022-07-30T06:52:56;45.27;38.97;26.53
70197;PMS5003;57582;-34.876;138.628;2022-07-30T06:55:56;21.63;21.63;15.73
70197;PMS5003;57582;-34.876;138.628;2022-07-30T06:58:57;22.67;22.30;15.70
70197;PMS5003;57582;-34.876;138.628;2022-07-30T07:01:56;28.93;26.57;18.53
70197;PMS5003;57582;-34.876;138.628;2022-07-30T07:04:56;6.87;6.63;4.37
70197;PMS5003;57582;-34.876;138.628;2022-07-30T07:07:56;3.03;2.03;1.40
70197;PMS5003;57582;-34.876;138.628;2022-07-30T07:10:56;52.07;44.37;30.50
70197;PMS5003;57582;-34.876;138.628;2022-07-30T07:13:56;2.43;2.03;0.63
70197;PMS5003;57582;-34.876;138.628;2022-07-30T07:16:56;3.17;3.17;1.47
70197;PMS5003;57582;-34.876;138.628;2022-07-30T07:19:56;6.87;6.57;4.03
70197;PMS5003;57582;-34.876;138.628;2022-07-30T07:22:56;16.03;11.83;6.63
70197;PMS5003;57582;-34.876;138.628;2022-07-30T07:25:56;1.43;1.43;0.43
70197;PMS5003;57582;-34.876;138.628;2022-07-30T07:28:56;2.57;2.03;0.97
70197;PMS5003;57582;-34.876;138.628;2022-07-30T07:31:56;3.40;1.80;0.57
70197;PMS5003;57582;-34.876;138.628;2022-07-30T07:34:56;1.03;0.83;0.67
70197;PMS5003;57582;-34.876;138.628;2022-07-30T07:37:56;2.67;2.50;1.20
70197;PMS5003;57582;-34.876;138.628;2022-07-30T07:40:56;5.63;5.63;4.63
70197;PMS5003;57582;-34.876;138.628;2022-07-30T07:43:56;2.67;2.67;1.50
70197;PMS5003;57582;-34.876;138.628;2022-07-30T07:46:56;3.27;2.93;1.63
70197;PMS5003;57582;-34.876;138.628;2022-07-30T07:49:56;4.67;3.97;2.97
70197;PMS5003;57582;-34.876;138.628;2022-07-30T07:52:56;3.10;2.87;1.77
70197;PMS5003;57582;-34.876;138.628;2022-07-30T07:55:56;3.37;3.37;2.03
70197;PMS5003;57582;-34.876;138.628;2022-07-30T07:58:56;1.97;1.97;1.63
70197;PMS5003;57582;-34.876;138.628;2022-07-30T08:01:56;2.40;2.40;1.37
70197;PMS5003;57582;-34.876;138.628;2022-07-30T08:04:56;2.33;2.30;1.37
70197;PMS5003;57582;-34.876;138.628;2022-07-30T08:07:56;3.67;2.30;1.27
70197;PMS5003;57582;-34.876;138.628;2022-07-30T08:10:56;2.60;2.60;1.93
70197;PMS5003;57582;-34.876;138.628;2022-07-30T08:13:56;1.87;1.87;1.30
70197;PMS5003;57582;-34.876;138.628;2022-07-30T08:16:56;3.17;2.10;1.13
70197;PMS5003;57582;-34.876;138.628;2022-07-30T08:20:00;3.63;3.63;2.23
70197;PMS5003;57582;-34.876;138.628;2022-07-30T08:22:56;2.80;2.80;1.57
70197;PMS5003;57582;-34.876;138.628;2022-07-30T08:25:57;3.60;3.60;1.77
70197;PMS5003;57582;-34.876;138.628;2022-07-30T08:28:56;1.57;1.57;0.83
70197;PMS5003;57582;-34.876;138.628;2022-07-30T08:31:56;2.17;1.83;0.77
70197;PMS5003;57582;-34.876;138.628;2022-07-30T08:34:56;3.70;2.17;1.20
70197;PMS5003;57582;-34.876;138.628;2022-07-30T08:37:56;2.70;1.90;1.00
70197;PMS5003;57582;-34.876;138.628;2022-07-30T08:40:57;1.87;1.87;1.13
70197;PMS5003;57582;-34.876;138.628;2022-07-30T08:43:59;3.43;3.43;1.23
70197;PMS5003;57582;-34.876;138.628;2022-07-30T08:46:58;3.00;2.80;1.00
70197;PMS5003;57582;-34.876;138.628;2022-07-30T08:49:56;2.07;1.60;1.17
70197;PMS5003;57582;-34.876;138.628;2022-07-30T08:52:57;2.23;1.53;0.67
70197;PMS5003;57582;-34.876;138.628;2022-07-30T08:55:56;2.97;2.97;1.03
70197;PMS5003;57582;-34.876;138.628;2022-07-30T08:58:58;2.33;2.33;0.93
70197;PMS5003;57582;-34.876;138.628;2022-07-30T09:01:58;2.13;2.13;0.93
70197;PMS5003;57582;-34.876;138.628;2022-07-30T09:04:56;2.97;2.43;1.17
70197;PMS5003;57582;-34.876;138.628;2022-07-30T09:07:56;2.73;2.00;1.03
70197;PMS5003;57582;-34.876;138.628;2022-07-30T09:10:57;3.30;1.70;0.90
70197;PMS5003;57582;-34.876;138.628;2022-07-30T09:14:10;2.03;1.50;0.87
70197;PMS5003;57582;-34.876;138.628;2022-07-30T09:16:57;3.30;3.30;1.60
70197;PMS5003;57582;-34.876;138.628;2022-07-30T09:20:04;2.37;2.37;1.00
70197;PMS5003;57582;-34.876;138.628;2022-07-30T09:22:59;1.43;1.00;0.33
70197;PMS5003;57582;-34.876;138.628;2022-07-30T09:25:57;1.43;1.43;1.00
70197;PMS5003;57582;-34.876;138.628;2022-07-30T09:29:21;3.60;2.57;1.37
70197;PMS5003;57582;-34.876;138.628;2022-07-30T09:32:02;2.20;2.20;1.43
70197;PMS5003;57582;-34.876;138.628;2022-07-30T09:35:13;0.83;0.83;0.20
70197;PMS5003;57582;-34.876;138.628;2022-07-30T09:37:58;2.83;2.03;1.67
70197;PMS5003;57582;-34.876;138.628;2022-07-30T09:40:57;6.43;5.27;2.67
70197;PMS5003;57582;-34.876;138.628;2022-07-30T09:43:56;2.50;1.30;0.43
70197;PMS5003;57582;-34.876;138.628;2022-07-30T09:46:57;2.23;2.23;1.57
70197;PMS5003;57582;-34.876;138.628;2022-07-30T09:50:05;3.17;2.07;1.20
70197;PMS5003;57582;-34.876;138.628;2022-07-30T09:53:06;4.57;4.57;2.37
70197;PMS5003;57582;-34.876;138.628;2022-07-30T09:55:56;3.20;3.20;2.00
70197;PMS5003;57582;-34.876;138.628;2022-07-30T09:58:56;4.10;3.30;2.20
70197;PMS5003;57582;-34.876;138.628;2022-07-30T10:01:56;0.53;0.53;0.10
70197;PMS5003;57582;-34.876;138.628;2022-07-30T10:05:07;4.53;4.03;2.17
70197;PMS5003;57582;-34.876;138.628;2022-07-30T10:07:59;19.57;17.80;10.70
70197;PMS5003;57582;-34.876;138.628;2022-07-30T10:10:57;19.80;19.03;11.70
70197;PMS5003;57582;-34.876;138.628;2022-07-30T10:13:57;20.60;17.33;11.50
70197;PMS5003;57582;-34.876;138.628;2022-07-30T10:16:58;4.93;4.70;2.73
70197;PMS5003;57582;-34.876;138.628;2022-07-30T10:19:56;9.40;8.63;5.70
70197;PMS5003;57582;-34.876;138.628;2022-07-30T10:22:57;9.03;9.03;6.87
70197;PMS5003;57582;-34.876;138.628;2022-07-30T10:25:56;5.73;4.43;2.47
70197;PMS5003;57582;-34.876;138.628;2022-07-30T10:28:57;5.77;5.03;3.30
70197;PMS5003;57582;-34.876;138.628;2022-07-30T10:31:56;7.03;6.87;4.30
70197;PMS5003;57582;-34.876;138.628;2022-07-30T10:34:57;6.40;6.33;4.33
70197;PMS5003;57582;-34.876;138.628;2022-07-30T10:37:57;11.67;9.97;6.03
70197;PMS5003;57582;-34.876;138.628;2022-07-30T10:47:03;2.20;1.40;0.63
70197;PMS5003;57582;-34.876;138.628;2022-07-30T10:50:10;3.53;2.33;1.10
70197;PMS5003;57582;-34.876;138.628;2022-07-30T10:53:00;29.23;25.07;14.97
70197;PMS5003;57582;-34.876;138.628;2022-07-30T10:56:09;22.10;18.43;12.13
70197;PMS5003;57582;-34.876;138.628;2022-07-30T11:05:21;11.23;11.23;7.90
70197;PMS5003;57582;-34.876;138.628;2022-07-30T11:10:56;7.13;6.37;4.00
70197;PMS5003;57582;-34.876;138.628;2022-07-30T11:13:59;7.73;6.80;4.27
70197;PMS5003;57582;-34.876;138.628;2022-07-30T11:16:58;6.97;6.97;3.93
70197;PMS5003;57582;-34.876;138.628;2022-07-30T11:20:08;32.40;30.60;21.63
70197;PMS5003;57582;-34.876;138.628;2022-07-30T11:23:10;3.50;3.50;2.63
70197;PMS5003;57582;-34.876;138.628;2022-07-30T11:25:56;4.30;3.17;1.40
70197;PMS5003;57582;-34.876;138.628;2022-07-30T11:28:56;5.33;5.33;3.20
70197;PMS5003;57582;-34.876;138.628;2022-07-30T11:31:56;7.07;6.17;4.00
70197;PMS5003;57582;-34.876;138.628;2022-07-30T11:35:22;5.00;4.67;2.70
70197;PMS5003;57582;-34.876;138.628;2022-07-30T11:38:13;14.80;13.80;7.90
70197;PMS5003;57582;-34.876;138.628;2022-07-30T11:46:58;2.53;2.13;1.00
70197;PMS5003;57582;-34.876;138.628;2022-07-30T11:49:56;1.60;1.47;1.30
70197;PMS5003;57582;-34.876;138.628;2022-07-30T11:55:58;12.40;9.83;5.80
70197;PMS5003;57582;-34.876;138.628;2022-07-30T11:59:06;7.83;6.20;2.80
70197;PMS5003;57582;-34.876;138.628;2022-07-30T12:01:56;3.23;3.23;1.47
70197;PMS5003;57582;-34.876;138.628;2022-07-30T12:04:57;10.40;9.97;6.53
70197;PMS5003;57582;-34.876;138.628;2022-07-30T12:07:57;16.90;15.20;10.07
70197;PMS5003;57582;-34.876;138.628;2022-07-30T12:10:59;6.70;4.93;3.37
70197;PMS5003;57582;-34.876;138.628;2022-07-30T12:13:58;2.10;1.10;0.20
70197;PMS5003;57582;-34.876;138.628;2022-07-30T12:16:56;6.10;4.67;3.10
70197;PMS5003;57582;-34.876;138.628;2022-07-30T12:19:56;2.10;1.97;0.87
70197;PMS5003;57582;-34.876;138.628;2022-07-30T12:22:57;1.57;0.97;0.43
70197;PMS5003;57582;-34.876;138.628;2022-07-30T12:25:57;1.70;1.17;0.87
70197;PMS5003;57582;-34.876;138.628;2022-07-30T12:28:59;0.10;0.10;0.00
70197;PMS5003;57582;-34.876;138.628;2022-07-30T12:31:56;0.30;0.20;0.00
70197;PMS5003;57582;-34.876;138.628;2022-07-30T12:34:57;1.40;0.83;0.47
70197;PMS5003;57582;-34.876;138.628;2022-07-30T12:38:04;0.87;0.87;0.67
70197;PMS5003;57582;-34.876;138.628;2022-07-30T12:40:58;0.33;0.33;0.20
70197;PMS5003;57582;-34.876;138.628;2022-07-30T12:43:56;0.00;0.00;0.00
70197;PMS5003;57582;-34.876;138.628;2022-07-30T12:46:57;0.30;0.00;0.00
70197;PMS5003;57582;-34.876;138.628;2022-07-30T12:50:00;0.93;0.37;0.00
70197;PMS5003;57582;-34.876;138.628;2022-07-30T12:52:56;46.67;40.83;27.67
70197;PMS5003;57582;-34.876;138.628;2022-07-30T12:56:14;26.37;23.87;15.03
70197;PMS5003;57582;-34.876;138.628;2022-07-30T12:58:58;38.37;35.63;24.03
70197;PMS5003;57582;-34.876;138.628;2022-07-30T13:01:57;58.10;49.23;31.13
70197;PMS5003;57582;-34.876;138.628;2022-07-30T13:04:56;43.63;38.43;27.27
70197;PMS5003;57582;-34.876;138.628;2022-07-30T13:07:59;4.10;2.37;1.40
70197;PMS5003;57582;-34.876;138.628;2022-07-30T13:10:59;14.23;13.77;10.47
70197;PMS5003;57582;-34.876;138.628;2022-07-30T13:13:56;3.50;1.53;1.23
70197;PMS5003;57582;-34.876;138.628;2022-07-30T13:16:57;1.73;1.73;1.20
70197;PMS5003;57582;-34.876;138.628;2022-07-30T13:19:56;1.43;0.90;0.03
70197;PMS5003;57582;-34.876;138.628;2022-07-30T13:22:57;0.30;0.30;0.00
70197;PMS5003;57582;-34.876;138.628;2022-07-30T13:28:57;1.67;0.33;0.00
70197;PMS5003;57582;-34.876;138.628;2022-07-30T13:31:56;0.70;0.70;0.30
70197;PMS5003;57582;-34.876;138.628;2022-07-30T13:34:56;0.43;0.43;0.10
70197;PMS5003;57582;-34.876;138.628;2022-07-30T13:37:56;0.33;0.33;0.10
70197;PMS5003;57582;-34.876;138.628;2022-07-30T13:40:56;1.20;0.77;0.23
70197;PMS5003;57582;-34.876;138.628;2022-07-30T13:43:56;0.00;0.00;0.00
70197;PMS5003;57582;-34.876;138.628;2022-07-30T13:46:57;20.30;17.37;7.37
70197;PMS5003;57582;-34.876;138.628;2022-07-30T13:49:56;2.60;2.03;0.63
70197;PMS5003;57582;-34.876;138.628;2022-07-30T13:52:57;8.87;6.93;2.70
70197;PMS5003;57582;-34.876;138.628;2022-07-30T13:55:57;4.20;3.53;1.07
70197;PMS5003;57582;-34.876;138.628;2022-07-30T13:58:57;3.30;2.77;1.30
70197;PMS5003;57582;-34.876;138.628;2022-07-30T14:01:56;46.87;40.53;19.83
70197;PMS5003;57582;-34.876;138.628;2022-07-30T14:04:57;16.03;14.07;6.83
70197;PMS5003;57582;-34.876;138.628;2022-07-30T14:07:56;53.03;42.63;22.83
70197;PMS5003;57582;-34.876;138.628;2022-07-30T14:10:57;67.37;51.70;28.23
70197;PMS5003;57582;-34.876;138.628;2022-07-30T14:13:57;93.10;76.17;40.17
70197;PMS5003;57582;-34.876;138.628;2022-07-30T14:16:57;27.70;22.47;12.67
70197;PMS5003;57582;-34.876;138.628;2022-07-30T14:19:56;52.93;42.27;23.33
70197;PMS5003;57582;-34.876;138.628;2022-07-30T14:22:56;18.97;16.57;12.03
70197;PMS5003;57582;-34.876;138.628;2022-07-30T14:25:56;12.40;10.87;5.80
70197;PMS5003;57582;-34.876;138.628;2022-07-30T14:28:57;7.43;5.13;3.10
70197;PMS5003;57582;-34.876;138.628;2022-07-30T14:31:56;13.40;12.53;7.93
70197;PMS5003;57582;-34.876;138.628;2022-07-30T14:34:57;12.23;12.23;8.93
70197;PMS5003;57582;-34.876;138.628;2022-07-30T14:37:56;2.67;2.67;1.90
70197;PMS5003;57582;-34.876;138.628;2022-07-30T14:40:57;4.90;4.90;3.83
70197;PMS5003;57582;-34.876;138.628;2022-07-30T14:43:56;12.87;12.87;9.27
70197;PMS5003;57582;-34.876;138.628;2022-07-30T14:46:57;6.70;6.27;5.23
70197;PMS5003;57582;-34.876;138.628;2022-07-30T14:49:57;2.03;2.03;1.13
70197;PMS5003;57582;-34.876;138.628;2022-07-30T14:52:57;2.90;2.90;2.50
70197;PMS5003;57582;-34.876;138.628;2022-07-30T14:55:56;1.80;1.80;1.13
70197;PMS5003;57582;-34.876;138.628;2022-07-30T14:58:57;1.20;1.00;0.40
70197;PMS5003;57582;-34.876;138.628;2022-07-30T15:01:56;1.27;1.00;0.27
70197;PMS5003;57582;-34.876;138.628;2022-07-30T15:04:57;2.93;2.93;1.97
70197;PMS5003;57582;-34.876;138.628;2022-07-30T15:07:56;0.00;0.00;0.00
70197;PMS5003;57582;-34.876;138.628;2022-07-30T15:10:57;0.00;0.00;0.00
70197;PMS5003;57582;-34.876;138.628;2022-07-30T15:13:56;0.10;0.10;0.00
70197;PMS5003;57582;-34.876;138.628;2022-07-30T15:16:57;2.23;0.10;0.03
70197;PMS5003;57582;-34.876;138.628;2022-07-30T15:19:56;0.77;0.77;0.00
70197;PMS5003;57582;-34.876;138.628;2022-07-30T15:22:57;1.73;1.73;0.20
70197;PMS5003;57582;-34.876;138.628;2022-07-30T15:25:57;1.40;0.73;0.00
70197;PMS5003;57582;-34.876;138.628;2022-07-30T15:28:57;0.00;0.00;0.00
70197;PMS5003;57582;-34.876;138.628;2022-07-30T15:31:57;0.10;0.10;0.00
70197;PMS5003;57582;-34.876;138.628;2022-07-30T15:34:57;0.87;0.70;0.00
70197;PMS5003;57582;-34.876;138.628;2022-07-30T15:37:56;0.00;0.00;0.00
70197;PMS5003;57582;-34.876;138.628;2022-07-30T15:40:57;0.73;0.37;0.00
70197;PMS5003;57582;-34.876;138.628;2022-07-30T15:43:56;0.10;0.00;0.00
70197;PMS5003;57582;-34.876;138.628;2022-07-30T15:46:57;0.00;0.00;0.00
70197;PMS5003;57582;-34.876;138.628;2022-07-30T15:49:56;0.60;0.00;0.00
70197;PMS5003;57582;-34.876;138.628;2022-07-30T15:52:57;0.27;0.27;0.00
70197;PMS5003;57582;-34.876;138.628;2022-07-30T15:55:57;0.07;0.07;0.00
70197;PMS5003;57582;-34.876;138.628;2022-07-30T15:58:58;0.27;0.27;0.27
70197;PMS5003;57582;-34.876;138.628;2022-07-30T16:01:57;0.27;0.27;0.27
70197;PMS5003;57582;-34.876;138.628;2022-07-30T16:04:57;0.00;0.00;0.00
70197;PMS5003;57582;-34.876;138.628;2022-07-30T16:07:56;0.33;0.00;0.00
70197;PMS5003;57582;-34.876;138.628;2022-07-30T16:10:57;0.00;0.00;0.00
70197;PMS5003;57582;-34.876;138.628;2022-07-30T16:13:56;0.27;0.13;0.13
70197;PMS5003;57582;-34.876;138.628;2022-07-30T16:16:57;0.00;0.00;0.00
70197;PMS5003;57582;-34.876;138.628;2022-07-30T16:19:57;0.00;0.00;0.00
70197;PMS5003;57582;-34.876;138.628;2022-07-30T16:22:57;1.43;0.00;0.00
70197;PMS5003;57582;-34.876;138.628;2022-07-30T16:25:56;0.13;0.00;0.00
70197;PMS5003;57582;-34.876;138.628;2022-07-30T16:28:57;0.60;0.60;0.00
70197;PMS5003;57582;-34.876;138.628;2022-07-30T16:31:56;0.00;0.00;0.00
70197;PMS5003;57582;-34.876;138.628;2022-07-30T16:34:57;0.73;0.40;0.00
70197;PMS5003;57582;-34.876;138.628;2022-07-30T16:37:56;0.47;0.10;0.00
70197;PMS5003;57582;-34.876;138.628;2022-07-30T16:40:57;0.67;0.67;0.53
70197;PMS5003;57582;-34.876;138.628;2022-07-30T16:43:56;0.20;0.00;0.00
70197;PMS5003;57582;-34.876;138.628;2022-07-30T16:46:58;0.17;0.17;0.00
70197;PMS5003;57582;-34.876;138.628;2022-07-30T16:49:56;1.00;0.00;0.00
70197;PMS5003;57582;-34.876;138.628;2022-07-30T16:52:58;0.13;0.00;0.00
70197;PMS5003;57582;-34.876;138.628;2022-07-30T16:55:57;0.00;0.00;0.00
70197;PMS5003;57582;-34.876;138.628;2022-07-30T16:58:57;0.40;0.00;0.00
70197;PMS5003;57582;-34.876;138.628;2022-07-30T17:01:56;0.00;0.00;0.00
70197;PMS5003;57582;-34.876;138.628;2022-07-30T17:04:57;0.80;0.07;0.00
70197;PMS5003;57582;-34.876;138.628;2022-07-30T17:07:56;0.73;0.27;0.00
70197;PMS5003;57582;-34.876;138.628;2022-07-30T17:10:57;0.13;0.07;0.00
70197;PMS5003;57582;-34.876;138.628;2022-07-30T17:13:57;0.00;0.00;0.00